Time;durP1;ratioP1;P1;durP2;ratioP2;P2;SDS_P1;SDS_P2;PMS_P1;PMS_P2;Temp;Humidity;BMP_temperature;BMP_pressure;BME280_temperature;BME280_humidity;BME280_pressure;Samples;Min_cycle;Max_cycle;Signal;HPM_P1;HPM_P2
2021/03/09 00:00:08;;;;;;;96.63;21.43;;;;;;;-3.94;63.57;99539.91;128068;1110;22898;-64
2021/03/09 00:02:36;;;;;;;104.53;21.90;;;;;;;-3.94;64.18;99547.89;128258;1111;22857;-65
2021/03/09 00:05:04;;;;;;;69.73;16.27;;;;;;;-3.92;63.94;99553.89;128035;1112;23013;-65
2021/03/09 00:07:31;;;;;;;62.93;14.83;;;;;;;-3.92;64.32;99553.05;128237;1111;22995;-67
2021/03/09 00:09:59;;;;;;;63.23;14.60;;;;;;;-3.95;63.98;99550.72;128118;1112;22906;-67
2021/03/09 00:12:27;;;;;;;31.87;9.13;;;;;;;-3.94;63.20;99553.22;128242;1112;23846;-66
2021/03/09 00:14:55;;;;;;;14.60;5.30;;;;;;;-3.96;62.94;99549.88;128126;1111;22965;-67
2021/03/09 00:17:31;;;;;;;41.33;9.93;;;;;;;-3.99;63.48;99550.20;128232;1112;22898;-66
2021/03/09 00:20:00;;;;;;;23.27;7.23;;;;;;;-3.98;63.22;99546.55;128158;1112;22863;-67
2021/03/09 00:22:28;;;;;;;28.37;7.97;;;;;;;-3.94;63.35;99547.06;128199;1112;22892;-66
2021/03/09 00:24:55;;;;;;;15.83;4.30;;;;;;;-3.93;64.26;99540.73;128125;1111;22971;-66
2021/03/09 00:27:22;;;;;;;9.87;3.80;;;;;;;-3.90;64.53;99545.73;128186;1111;23497;-67
2021/03/09 00:29:50;;;;;;;8.83;3.53;;;;;;;-3.92;63.46;99535.26;128087;1111;22907;-66
2021/03/09 00:32:17;;;;;;;12.93;5.10;;;;;;;-3.97;63.66;99545.55;128213;1112;22870;-66
2021/03/09 00:34:46;;;;;;;6.33;3.30;;;;;;;-4.01;63.48;99548.70;128072;1112;22920;-67
2021/03/09 00:37:14;;;;;;;8.87;3.13;;;;;;;-4.02;63.80;99552.35;128217;1111;22901;-66
2021/03/09 00:39:41;;;;;;;13.03;3.60;;;;;;;-4.02;64.92;99544.37;128099;1112;23643;-66
2021/03/09 00:42:09;;;;;;;9.90;3.33;;;;;;;-4.02;63.97;99545.20;128220;1112;22920;-66
2021/03/09 00:44:37;;;;;;;5.77;2.30;;;;;;;-4.01;64.85;99559.34;128146;1111;23745;-66
2021/03/09 00:47:04;;;;;;;6.80;2.60;;;;;;;-4.02;63.61;99544.37;128216;1111;22821;-66
2021/03/09 00:49:32;;;;;;;6.23;3.10;;;;;;;-4.03;64.96;99554.17;128194;1112;25440;-67
2021/03/09 00:52:00;;;;;;;5.20;2.60;;;;;;;-4.04;64.19;99549.05;128077;1111;23549;-66
2021/03/09 00:54:27;;;;;;;4.60;2.83;;;;;;;-4.03;65.32;99548.86;128160;1111;22962;-66
2021/03/09 00:56:54;;;;;;;7.13;2.93;;;;;;;-4.04;64.27;99552.52;128056;1112;23662;-66
2021/03/09 00:59:22;;;;;;;7.43;3.30;;;;;;;-3.99;65.18;99547.55;128205;1110;22953;-68
2021/03/09 01:01:49;;;;;;;8.40;3.20;;;;;;;-3.90;64.69;99547.57;128106;1111;23679;-69
2021/03/09 01:04:19;;;;;;;6.47;2.80;;;;;;;-3.84;64.44;99555.70;128209;1110;22850;-67
2021/03/09 01:06:46;;;;;;;6.57;2.67;;;;;;;-3.82;64.39;99548.39;128065;1111;22893;-68
2021/03/09 01:09:14;;;;;;;7.57;3.03;;;;;;;-3.81;65.12;99547.40;128264;1111;23464;-68
2021/03/09 01:11:42;;;;;;;6.70;3.03;;;;;;;-3.83;64.73;99549.39;128099;1112;22864;-67
2021/03/09 01:14:09;;;;;;;7.87;3.00;;;;;;;-3.84;64.28;99557.53;128197;1112;22912;-68
2021/03/09 01:16:36;;;;;;;6.53;3.07;;;;;;;-3.86;64.74;99552.37;128130;1111;22908;-68
2021/03/09 01:19:04;;;;;;;7.50;3.43;;;;;;;-3.82;64.65;99551.06;128257;1112;22915;-67
2021/03/09 01:21:31;;;;;;;7.87;3.47;;;;;;;-3.83;64.78;99556.54;128148;1112;22899;-68
2021/03/09 01:23:59;;;;;;;9.60;3.60;;;;;;;-3.86;65.27;99559.53;128260;1112;22985;-68
2021/03/09 01:26:27;;;;;;;6.37;3.23;;;;;;;-3.85;64.24;99563.85;128067;1112;23025;-69
2021/03/09 01:28:55;;;;;;;11.73;4.57;;;;;;;-3.86;65.35;99559.53;128226;1111;22873;-68
2021/03/09 01:31:23;;;;;;;10.30;3.50;;;;;;;-3.86;65.03;99557.70;128213;1111;24226;-68
2021/03/09 01:33:51;;;;;;;6.33;2.83;;;;;;;-3.87;64.70;99560.52;128137;1110;22997;-69
2021/03/09 01:36:18;;;;;;;7.93;3.60;;;;;;;-3.86;65.35;99570.17;126278;1112;28668;-68
2021/03/09 01:38:46;;;;;;;7.40;3.37;;;;;;;-3.85;65.78;99574.50;128030;1112;22916;-68
2021/03/09 01:41:13;;;;;;;7.30;2.90;;;;;;;-3.81;65.33;99562.53;128196;1112;22977;-68
2021/03/09 01:43:41;;;;;;;8.23;2.90;;;;;;;-3.81;64.92;99567.86;128159;1112;24147;-67
2021/03/09 01:46:08;;;;;;;9.73;3.10;;;;;;;-3.77;65.15;99570.04;128286;1112;22925;-66
2021/03/09 01:48:43;;;;;;;4.60;2.53;;;;;;;-3.74;64.66;99560.86;126132;1112;23077;-67
2021/03/09 01:51:17;;;;;;;6.07;3.37;;;;;;;-3.73;65.12;99565.19;128245;1112;23639;-66
2021/03/09 01:53:45;;;;;;;5.17;3.07;;;;;;;-3.76;64.84;99570.87;128151;1112;23361;-66
2021/03/09 01:56:13;;;;;;;6.60;3.10;;;;;;;-3.79;65.83;99561.38;128307;1112;22985;-66
2021/03/09 01:58:42;;;;;;;5.27;2.87;;;;;;;-3.74;65.97;99564.36;128183;1112;23843;-66
2021/03/09 02:01:10;;;;;;;5.87;2.80;;;;;;;-3.71;64.85;99566.70;128279;1112;23180;-67
2021/03/09 02:03:37;;;;;;;4.67;2.80;;;;;;;-3.64;65.23;99569.55;128203;1112;23563;-66
2021/03/09 02:06:05;;;;;;;4.97;2.70;;;;;;;-3.57;65.71;99571.36;128271;1112;22995;-66
2021/03/09 02:08:33;;;;;;;4.97;2.23;;;;;;;-3.57;65.10;99570.52;126845;1112;23622;-66
2021/03/09 02:11:01;;;;;;;5.03;2.27;;;;;;;-3.53;64.93;99568.37;128327;1112;24559;-66
2021/03/09 02:13:37;;;;;;;4.17;2.03;;;;;;;-3.48;64.82;99577.53;128024;1111;22924;-66
2021/03/09 02:16:14;;;;;;;4.90;2.13;;;;;;;-3.46;65.32;99586.16;128291;1110;23593;-67
2021/03/09 02:19:26;;;;;;;6.47;2.60;;;;;;;-3.47;64.80;99581.86;128139;1111;22897;-67
2021/03/09 02:22:28;;;;;;;6.13;2.43;;;;;;;-3.47;65.18;99583.69;128297;1112;22993;-67
2021/03/09 02:25:03;;;;;;;5.40;2.63;;;;;;;-3.54;65.24;99580.85;128192;1112;22891;-67
2021/03/09 02:28:10;;;;;;;3.63;2.13;;;;;;;-3.56;64.54;99581.02;128244;1112;22894;-67
2021/03/09 02:30:39;;;;;;;4.30;2.30;;;;;;;-3.56;65.08;99591.66;128101;1112;22860;-67
2021/03/09 02:33:25;;;;;;;6.50;2.93;;;;;;;-3.51;65.31;99585.02;128320;1111;23511;-67
2021/03/09 02:36:01;;;;;;;5.70;2.83;;;;;;;-3.51;65.36;99591.17;128116;1112;22907;-67
2021/03/09 02:38:51;;;;;;;5.30;2.73;;;;;;;-3.48;64.54;99592.68;128295;1112;23620;-67
2021/03/09 02:41:19;;;;;;;6.50;3.37;;;;;;;-3.48;64.01;99598.84;128185;1112;22930;-67
2021/03/09 02:43:48;;;;;;;8.10;2.87;;;;;;;-3.50;65.69;99600.83;128314;1111;22864;-67
2021/03/09 02:46:16;;;;;;;9.53;3.27;;;;;;;-3.48;64.67;99593.52;128162;1111;23399;-67
2021/03/09 02:48:44;;;;;;;9.30;4.03;;;;;;;-3.44;64.33;99605.48;128344;1112;23685;-68
2021/03/09 02:51:11;;;;;;;8.90;3.50;;;;;;;-3.42;65.15;99600.81;125535;1112;23121;-68
2021/03/09 02:53:50;;;;;;;6.17;3.13;;;;;;;-3.40;64.59;99604.16;128132;1110;23003;-68
2021/03/09 02:56:18;;;;;;;6.67;3.00;;;;;;;-3.48;64.13;99612.16;128192;1111;22851;-68
2021/03/09 02:58:48;;;;;;;7.13;2.80;;;;;;;-3.52;64.15;99608.15;128300;1111;22915;-68
2021/03/09 03:01:16;;;;;;;7.77;3.03;;;;;;;-3.55;63.98;99611.14;128148;1111;23009;-68
2021/03/09 03:03:44;;;;;;;7.93;2.93;;;;;;;-3.61;64.91;99617.95;128354;1112;23633;-68
2021/03/09 03:06:12;;;;;;;8.57;3.13;;;;;;;-3.67;65.10;99615.13;128163;1111;22857;-68
2021/03/09 03:08:39;;;;;;;6.10;2.30;;;;;;;-3.66;64.94;99614.97;128308;1112;23700;-67
2021/03/09 03:11:06;;;;;;;5.47;2.20;;;;;;;-3.69;64.77;99604.64;128140;1112;23013;-66
2021/03/09 03:13:34;;;;;;;5.20;2.73;;;;;;;-3.68;64.46;99618.78;128249;1111;22907;-66
2021/03/09 03:16:02;;;;;;;8.53;3.23;;;;;;;-3.69;65.24;99617.95;128188;1112;22869;-67
2021/03/09 03:18:36;;;;;;;6.07;2.67;;;;;;;-3.68;65.48;99616.12;128187;1111;22908;-67
2021/03/09 03:21:04;;;;;;;4.10;2.13;;;;;;;-3.69;64.92;99617.95;128145;1112;22838;-65
2021/03/09 03:23:31;;;;;;;4.53;1.83;;;;;;;-3.69;64.87;99623.27;128253;1111;23029;-66
2021/03/09 03:25:59;;;;;;;4.33;2.13;;;;;;;-3.67;65.71;99617.79;128155;1111;23817;-65
2021/03/09 03:28:27;;;;;;;4.23;1.90;;;;;;;-3.68;64.76;99627.61;128268;1111;23483;-66
2021/03/09 03:30:54;;;;;;;4.50;2.05;;;;;;;-3.75;64.68;99623.91;128252;1112;22913;-65
2021/03/09 03:33:22;;;;;;;2.30;1.60;;;;;;;-3.83;64.33;99629.23;128183;1112;22909;-65
2021/03/09 03:35:49;;;;;;;4.43;1.87;;;;;;;-3.84;65.23;99629.40;128276;1112;22870;-66
2021/03/09 03:38:17;;;;;;;3.33;1.50;;;;;;;-3.89;65.17;99635.20;128132;1112;22904;-66
2021/03/09 03:40:44;;;;;;;6.33;2.30;;;;;;;-3.94;64.56;99638.38;128290;1112;22864;-66
2021/03/09 03:43:12;;;;;;;3.40;1.90;;;;;;;-3.98;64.56;99646.83;128133;1111;22846;-66
2021/03/09 03:45:39;;;;;;;3.47;1.77;;;;;;;-3.97;65.41;99649.34;128309;1111;22911;-66
2021/03/09 03:48:07;;;;;;;5.07;2.23;;;;;;;-3.98;65.60;99652.98;128144;1110;22900;-66
2021/03/09 03:50:35;;;;;;;3.73;2.20;;;;;;;-4.01;65.64;99660.45;128279;1112;22970;-66
2021/03/09 03:53:21;;;;;;;5.57;2.67;;;;;;;-4.06;64.43;99657.46;128182;1112;23136;-65
2021/03/09 03:56:01;;;;;;;4.17;2.37;;;;;;;-4.10;64.72;99658.77;128218;1112;22904;-67
2021/03/09 03:58:38;;;;;;;4.10;2.03;;;;;;;-4.09;65.16;99671.08;128203;1112;23736;-66
2021/03/09 04:01:06;;;;;;;4.20;2.23;;;;;;;-4.09;64.85;99669.25;128303;1112;23682;-66
2021/03/09 04:03:33;;;;;;;4.50;2.00;;;;;;;-4.09;64.61;99668.42;128157;1111;23531;-66
2021/03/09 04:06:03;;;;;;;12.83;5.03;;;;;;;-4.13;64.29;99675.05;128216;1112;23002;-66
2021/03/09 04:08:34;;;;;;;2.67;1.57;;;;;;;-4.14;64.24;99668.06;128191;1112;22824;-66
2021/03/09 04:11:01;;;;;;;5.27;2.23;;;;;;;-4.13;63.54;99659.08;128314;1112;23002;-66
2021/03/09 04:13:29;;;;;;;5.63;2.20;;;;;;;-4.12;63.74;99669.57;128178;1111;22856;-66
2021/03/09 04:15:56;;;;;;;12.45;4.90;;;;;;;-4.06;64.34;99665.45;126925;1112;23240;-67
2021/03/09 04:18:25;;;;;;;6.10;3.10;;;;;;;-4.04;65.05;99680.23;128167;1110;22942;-67
2021/03/09 04:20:53;;;;;;;4.23;2.57;;;;;;;-3.99;65.18;99674.44;128248;1112;22871;-67
2021/03/09 04:23:20;;;;;;;4.43;2.20;;;;;;;-3.93;64.76;99677.30;128156;1110;23516;-67
2021/03/09 04:25:47;;;;;;;4.60;2.05;;;;;;;-3.89;64.63;99679.64;126821;1112;23118;-68
2021/03/09 04:28:15;;;;;;;3.87;1.83;;;;;;;-3.88;63.45;99678.62;128213;1112;23035;-67
2021/03/09 04:30:42;;;;;;;3.80;2.20;;;;;;;-3.91;64.31;99685.12;128278;1112;22842;-67
2021/03/09 04:33:10;;;;;;;5.13;2.53;;;;;;;-3.92;64.08;99684.29;128299;1112;22912;-67
2021/03/09 04:35:37;;;;;;;5.97;3.40;;;;;;;-3.90;64.30;99680.64;128124;1112;23458;-67
2021/03/09 04:38:05;;;;;;;5.33;2.80;;;;;;;-3.87;63.22;99682.95;128305;1112;22889;-67
2021/03/09 04:40:33;;;;;;;5.17;2.33;;;;;;;-3.85;63.75;99687.12;128173;1112;22916;-67
2021/03/09 04:43:02;;;;;;;3.67;1.83;;;;;;;-3.81;64.11;99685.81;128272;1112;24033;-67
2021/03/09 04:45:30;;;;;;;5.90;2.70;;;;;;;-3.81;64.04;99691.13;128184;1112;23695;-67
2021/03/09 04:48:01;;;;;;;3.33;2.03;;;;;;;-3.83;64.32;99700.27;128245;1112;22903;-67
2021/03/09 04:50:31;;;;;;;5.13;2.33;;;;;;;-3.85;63.79;99697.77;128131;1112;23532;-67
2021/03/09 04:52:58;;;;;;;5.93;2.77;;;;;;;-3.85;63.94;99695.11;128340;1111;22820;-68
2021/03/09 04:55:26;;;;;;;5.03;2.50;;;;;;;-3.82;63.84;99700.11;128095;1112;22877;-67
2021/03/09 04:57:53;;;;;;;6.60;2.70;;;;;;;-3.84;63.63;99706.59;128282;1112;22851;-69
2021/03/09 05:00:22;;;;;;;4.80;2.40;;;;;;;-3.85;64.04;99707.58;128214;1111;22924;-68
2021/03/09 05:02:50;;;;;;;5.70;2.57;;;;;;;-3.82;64.51;99709.92;128299;1112;22876;-68
2021/03/09 05:05:20;;;;;;;6.77;2.70;;;;;;;-3.77;64.52;99712.95;128212;1111;22897;-68
2021/03/09 05:07:48;;;;;;;5.33;2.17;;;;;;;-3.78;63.32;99720.09;128269;1112;23453;-68
2021/03/09 05:10:15;;;;;;;2.97;2.00;;;;;;;-3.85;63.13;99721.72;128127;1112;23572;-68
2021/03/09 05:12:44;;;;;;;3.70;2.33;;;;;;;-3.85;64.83;99719.06;128291;1112;22836;-68
2021/03/09 05:15:12;;;;;;;7.43;3.03;;;;;;;-3.80;64.38;99721.25;128182;1112;22904;-66
2021/03/09 05:17:39;;;;;;;4.83;2.80;;;;;;;-3.78;63.15;99727.25;128353;1112;22844;-68
2021/03/09 05:20:09;;;;;;;5.00;2.30;;;;;;;-3.79;63.26;99729.08;128288;1111;22916;-68
2021/03/09 05:22:37;;;;;;;3.83;2.37;;;;;;;-3.82;63.11;99739.20;128232;1112;23427;-68
2021/03/09 05:25:12;;;;;;;4.80;2.00;;;;;;;-3.85;63.85;99740.35;128301;1111;23049;-68
2021/03/09 05:27:40;;;;;;;5.50;2.33;;;;;;;-3.82;64.00;99744.53;128176;1112;22860;-68
2021/03/09 05:30:09;;;;;;;6.27;2.40;;;;;;;-3.79;62.94;99753.03;128357;1112;23799;-68
2021/03/09 05:32:36;;;;;;;3.57;2.23;;;;;;;-3.79;62.92;99749.53;128121;1112;22917;-68
2021/03/09 05:35:05;;;;;;;3.30;2.07;;;;;;;-3.76;62.76;99759.88;128285;1111;22926;-68
2021/03/09 05:37:32;;;;;;;4.37;2.60;;;;;;;-3.77;63.10;99761.70;128184;1112;22914;-68
2021/03/09 05:40:00;;;;;;;4.43;2.33;;;;;;;-3.78;62.85;99765.35;128252;1111;22879;-69
2021/03/09 05:42:27;;;;;;;5.07;2.70;;;;;;;-3.84;62.71;99775.79;128118;1112;22891;-69
2021/03/09 05:44:55;;;;;;;7.35;2.40;;;;;;;-3.93;63.02;99767.78;128220;1111;22995;-71
2021/03/09 05:47:23;;;;;;;5.80;2.83;;;;;;;-3.95;62.64;99774.25;128181;1111;23053;-73
2021/03/09 05:49:51;;;;;;;16.33;4.23;;;;;;;-3.95;63.32;99777.75;128288;1111;23067;-69
2021/03/09 05:52:19;;;;;;;9.47;3.53;;;;;;;-3.95;63.11;99776.91;128160;1111;22884;-71
2021/03/09 05:54:46;;;;;;;7.33;3.00;;;;;;;-3.90;63.97;99781.77;128252;1111;23620;-70
2021/03/09 05:57:14;;;;;;;5.33;2.57;;;;;;;-3.91;63.18;99783.59;128213;1112;22926;-68
2021/03/09 05:59:49;;;;;;;4.97;2.10;;;;;;;-3.92;63.64;99784.59;128290;1112;22924;-68
2021/03/09 06:02:17;;;;;;;4.13;2.30;;;;;;;-3.93;63.45;99786.41;128134;1112;23000;-68
2021/03/09 06:04:45;;;;;;;4.57;2.53;;;;;;;-3.93;64.23;99798.88;128260;1111;23809;-68
2021/03/09 06:07:12;;;;;;;5.30;2.60;;;;;;;-3.93;63.15;99793.56;128124;1112;23024;-68
2021/03/09 06:09:40;;;;;;;4.93;2.90;;;;;;;-3.87;63.54;99805.38;128281;1112;23365;-68
2021/03/09 06:12:09;;;;;;;6.50;2.50;;;;;;;-3.87;64.48;99814.20;128225;1112;22837;-71
2021/03/09 06:14:38;;;;;;;7.00;2.57;;;;;;;-3.85;64.17;99811.38;128201;1111;22884;-70
2021/03/09 06:17:06;;;;;;;5.10;2.57;;;;;;;-3.84;63.80;99818.37;128249;1111;22898;-70
2021/03/09 06:19:47;;;;;;;4.30;2.23;;;;;;;-3.84;63.99;99819.21;128151;1111;22956;-70
2021/03/09 06:22:15;;;;;;;3.27;2.10;;;;;;;-3.90;64.55;99819.03;128333;1111;22913;-70
2021/03/09 06:24:44;;;;;;;5.60;2.80;;;;;;;-3.95;64.41;99816.83;128182;1111;22975;-70
2021/03/09 06:27:25;;;;;;;5.47;2.43;;;;;;;-3.94;64.39;99823.83;124805;1112;27472;-70
2021/03/09 06:29:54;;;;;;;4.80;2.77;;;;;;;-3.94;65.87;99829.98;128195;1112;22891;-68
2021/03/09 06:32:22;;;;;;;4.23;2.50;;;;;;;-3.90;65.13;99829.67;128266;1111;22848;-68
2021/03/09 06:34:50;;;;;;;4.43;2.73;;;;;;;-3.88;65.72;99827.66;128163;1111;23005;-68
2021/03/09 06:37:21;;;;;;;6.43;3.50;;;;;;;-3.86;67.02;99836.33;128314;1109;23420;-68
2021/03/09 06:39:54;;;;;;;8.97;3.53;;;;;;;-3.84;67.02;99839.67;128164;1112;22991;-68
2021/03/09 06:42:31;;;;;;;7.33;3.20;;;;;;;-3.80;66.23;99835.71;128328;1111;22870;-68
2021/03/09 06:45:12;;;;;;;7.13;3.37;;;;;;;-3.82;66.94;99843.02;128158;1111;22905;-69
2021/03/09 06:47:46;;;;;;;7.17;3.23;;;;;;;-3.85;66.82;99845.98;128289;1112;22894;-68
2021/03/09 06:50:18;;;;;;;11.27;3.63;;;;;;;-3.84;67.98;99844.99;128163;1112;23023;-68
2021/03/09 06:53:02;;;;;;;8.20;3.83;;;;;;;-3.81;68.46;99850.84;128238;1112;22959;-68
2021/03/09 06:55:31;;;;;;;7.93;4.10;;;;;;;-3.76;68.51;99858.37;127538;1112;26231;-71
2021/03/09 06:58:11;;;;;;;9.20;3.53;;;;;;;-3.76;68.37;99866.35;128344;1112;22907;-68
2021/03/09 07:00:39;;;;;;;6.30;3.07;;;;;;;-3.81;68.20;99855.33;128197;1112;22930;-68
2021/03/09 07:03:32;;;;;;;9.17;3.60;;;;;;;-3.81;69.27;99869.48;128273;1111;22872;-68
2021/03/09 07:06:00;;;;;;;9.07;3.40;;;;;;;-3.78;68.54;99871.83;128217;1112;23049;-68
2021/03/09 07:08:28;;;;;;;7.13;3.80;;;;;;;-3.80;69.50;99871.16;128269;1112;23428;-68
2021/03/09 07:10:55;;;;;;;6.83;3.37;;;;;;;-3.81;69.09;99879.29;128194;1112;22898;-68
2021/03/09 07:13:24;;;;;;;3.23;2.53;;;;;;;-3.87;68.14;99883.41;128268;1112;22910;-68
2021/03/09 07:15:52;;;;;;;6.93;2.83;;;;;;;-3.95;68.39;99880.70;128167;1111;22886;-68
2021/03/09 07:18:20;;;;;;;5.27;2.37;;;;;;;-3.97;68.27;99883.52;128282;1111;22954;-68
2021/03/09 07:20:50;;;;;;;6.73;2.33;;;;;;;-4.03;68.33;99884.13;128126;1111;23058;-68
2021/03/09 07:23:18;;;;;;;6.47;3.50;;;;;;;-4.07;68.51;99885.45;128271;1112;22904;-68
2021/03/09 07:25:49;;;;;;;8.03;3.93;;;;;;;-4.06;68.19;99878.30;128241;1112;22909;-68
2021/03/09 07:28:16;;;;;;;6.10;3.17;;;;;;;-3.99;67.93;99874.02;128274;1112;23033;-70
2021/03/09 07:30:44;;;;;;;5.50;2.90;;;;;;;-3.89;68.79;99879.25;128023;1112;24438;-68
2021/03/09 07:33:12;;;;;;;7.97;3.40;;;;;;;-3.84;67.51;99882.26;128258;1112;22842;-69
2021/03/09 07:35:40;;;;;;;6.87;4.07;;;;;;;-3.84;67.10;99877.77;128145;1112;22908;-68
2021/03/09 07:38:07;;;;;;;3.77;2.10;;;;;;;-3.75;67.94;99881.34;128288;1112;23704;-68
2021/03/09 07:40:35;;;;;;;3.73;2.50;;;;;;;-3.65;67.79;99882.89;128281;1111;23116;-68
2021/03/09 07:43:03;;;;;;;5.57;3.00;;;;;;;-3.60;66.76;99875.23;128193;1112;23663;-68
2021/03/09 07:45:32;;;;;;;5.83;2.90;;;;;;;-3.54;66.65;99878.27;128296;1112;23693;-68
2021/03/09 07:48:09;;;;;;;9.97;3.27;;;;;;;-3.53;66.83;99872.79;128125;1112;23798;-68
2021/03/09 07:50:37;;;;;;;5.35;2.85;;;;;;;-3.50;67.13;99880.47;128229;1111;22930;-67
2021/03/09 07:53:08;;;;;;;5.93;3.00;;;;;;;-3.46;66.71;99867.67;128137;1111;22922;-68
2021/03/09 07:55:36;;;;;;;5.13;3.03;;;;;;;-3.38;66.20;99870.36;128239;1111;23086;-65
2021/03/09 07:58:26;;;;;;;6.20;3.40;;;;;;;-3.37;65.36;99870.20;128196;1112;22839;-65
2021/03/09 08:01:00;;;;;;;6.93;3.40;;;;;;;-3.36;64.72;99873.70;128222;1111;22940;-64
2021/03/09 08:03:36;;;;;;;6.50;2.60;;;;;;;-3.32;63.32;99878.52;128188;1112;22939;-65
2021/03/09 08:06:05;;;;;;;6.53;3.10;;;;;;;-3.29;63.55;99877.38;128272;1112;22934;-65
2021/03/09 08:08:38;;;;;;;7.07;2.97;;;;;;;-3.22;62.13;99881.08;128088;1112;22858;-65
2021/03/09 08:11:06;;;;;;;5.67;2.57;;;;;;;-3.15;61.38;99878.59;128238;1111;22844;-65
2021/03/09 08:13:33;;;;;;;3.83;2.03;;;;;;;-3.11;60.55;99879.95;128158;1111;22897;-64
2021/03/09 08:16:21;;;;;;;3.97;2.17;;;;;;;-3.05;60.84;99873.98;128308;1112;22849;-64
2021/03/09 08:18:52;;;;;;;3.85;2.72;;;;;;;-2.99;60.08;99867.98;128093;1112;22863;-64
2021/03/09 08:21:19;;;;;;;6.20;2.40;;;;;;;-2.91;59.82;99873.35;128305;1112;23643;-64
2021/03/09 08:23:47;;;;;;;5.50;2.47;;;;;;;-2.85;59.00;99876.19;128150;1111;22971;-63
2021/03/09 08:26:15;;;;;;;3.13;2.23;;;;;;;-2.79;58.15;99877.38;128304;1111;22894;-63
2021/03/09 08:28:52;;;;;;;6.25;3.35;;;;;;;-2.80;57.76;99881.03;128183;1111;22850;-63
2021/03/09 08:31:20;;;;;;;7.17;3.23;;;;;;;-2.86;57.91;99882.52;128307;1112;22874;-63
2021/03/09 08:33:49;;;;;;;3.97;2.20;;;;;;;-2.92;56.96;99877.84;128192;1112;22837;-63
2021/03/09 08:36:19;;;;;;;4.70;2.37;;;;;;;-2.95;56.97;99890.66;128292;1112;22921;-67
2021/03/09 08:41:35;;;;;;;5.87;2.23;;;;;;;-3.12;53.98;99888.94;128300;1112;22963;-66
2021/03/09 08:44:24;;;;;;;2.93;1.50;;;;;;;-3.15;55.46;99890.08;128178;1112;22867;-66
2021/03/09 08:47:11;;;;;;;5.20;1.90;;;;;;;-3.09;55.07;99886.79;128345;1112;22860;-67
2021/03/09 08:49:44;;;;;;;12.10;6.33;;;;;;;-3.03;52.10;99882.66;128220;1111;23026;-67
2021/03/09 08:52:38;;;;;;;4.47;2.00;;;;;;;-3.01;53.39;99873.47;128238;1111;22955;-66
2021/03/09 08:55:06;;;;;;;4.87;2.40;;;;;;;-2.86;52.72;99887.84;128200;1112;23046;-67
2021/03/09 08:57:33;;;;;;;5.77;4.23;;;;;;;-2.69;53.10;99886.05;128316;1112;23888;-67
2021/03/09 09:00:05;;;;;;;4.40;2.33;;;;;;;-2.57;52.75;99878.55;128155;1112;22912;-67
2021/03/09 09:02:38;;;;;;;3.47;2.20;;;;;;;-2.43;51.90;99872.56;128298;1112;22870;-67
2021/03/09 09:05:07;;;;;;;10.10;3.43;;;;;;;-2.28;55.53;99883.41;128225;1111;24854;-66
2021/03/09 09:07:39;;;;;;;7.87;4.03;;;;;;;-2.28;57.05;99886.08;128374;1112;22895;-64
2021/03/09 09:10:11;;;;;;;7.00;3.63;;;;;;;-2.37;58.17;99897.77;128235;1112;23402;-64
2021/03/09 09:12:51;;;;;;;7.10;4.03;;;;;;;-2.57;59.36;99907.90;128300;1112;22896;-64
2021/03/09 09:15:20;;;;;;;7.33;4.27;;;;;;;-2.79;60.02;99906.70;128205;1111;22887;-64
2021/03/09 09:17:50;;;;;;;6.73;3.73;;;;;;;-2.97;61.41;99919.30;128342;1111;22927;-64
2021/03/09 09:20:25;;;;;;;9.73;3.93;;;;;;;-3.14;61.75;99925.56;128210;1112;22864;-64
2021/03/09 09:22:53;;;;;;;9.33;3.70;;;;;;;-3.29;61.83;99923.50;128280;1111;23474;-64
2021/03/09 09:25:20;;;;;;;6.90;3.07;;;;;;;-3.42;61.21;99932.92;128183;1112;22861;-64
2021/03/09 09:27:52;;;;;;;6.23;3.03;;;;;;;-3.53;62.17;99935.86;128332;1111;23006;-65
2021/03/09 09:30:33;;;;;;;6.70;3.47;;;;;;;-3.64;62.16;99936.97;128253;1112;23868;-64
2021/03/09 09:33:03;;;;;;;8.37;4.00;;;;;;;-3.72;62.46;99944.89;128297;1112;22904;-65
2021/03/09 09:35:32;;;;;;;9.70;3.00;;;;;;;-3.82;62.51;99930.86;128224;1110;22909;-67
2021/03/09 09:38:04;;;;;;;6.83;3.47;;;;;;;-3.88;62.03;99936.79;128360;1112;22824;-67
2021/03/09 09:40:39;;;;;;;7.20;3.40;;;;;;;-3.92;62.35;99947.77;128230;1110;22913;-67
2021/03/09 09:43:09;;;;;;;8.57;4.70;;;;;;;-3.93;63.38;99953.24;128311;1112;22884;-66
2021/03/09 09:45:56;;;;;;;6.30;2.70;;;;;;;-3.97;65.39;99952.70;128201;1111;22977;-67
2021/03/09 09:48:25;;;;;;;6.23;3.40;;;;;;;-4.08;66.82;99952.95;128303;1111;22865;-66
2021/03/09 09:50:55;;;;;;;5.17;3.07;;;;;;;-4.11;65.71;99955.92;128193;1111;22857;-67
2021/03/09 09:53:39;;;;;;;6.77;3.33;;;;;;;-4.16;65.17;99954.70;128366;1112;22899;-67
2021/03/09 09:58:22;;;;;;;5.90;3.25;;;;;;;-4.18;64.76;99957.51;124410;1110;26484;-67
2021/03/09 10:00:55;;;;;;;5.80;3.30;;;;;;;-4.19;65.06;99965.67;124240;1110;23112;-67
2021/03/09 10:03:23;;;;;;;4.37;2.43;;;;;;;-4.23;65.28;99965.13;128141;1111;22941;-68
2021/03/09 10:05:51;;;;;;;5.17;3.40;;;;;;;-4.29;66.05;99963.06;127153;1111;26478;-64
2021/03/09 10:08:35;;;;;;;5.20;3.00;;;;;;;-4.32;66.93;99963.36;128144;1111;23591;-64
2021/03/09 10:11:03;;;;;;;5.33;3.10;;;;;;;-4.27;67.62;99969.91;128301;1111;23802;-65
2021/03/09 10:13:30;;;;;;;7.07;3.27;;;;;;;-4.20;66.32;99962.17;128196;1110;22829;-65
2021/03/09 10:15:58;;;;;;;5.83;3.13;;;;;;;-4.16;66.70;99968.84;128344;1111;22834;-65
2021/03/09 10:18:30;;;;;;;3.50;2.63;;;;;;;-4.10;67.54;99962.08;128195;1110;23006;-65
2021/03/09 10:21:12;;;;;;;6.03;3.13;;;;;;;-4.05;67.44;99959.80;128339;1111;22828;-65
2021/03/09 10:23:54;;;;;;;6.40;3.27;;;;;;;-3.99;67.38;99957.34;128232;1111;22905;-65
2021/03/09 10:26:53;;;;;;;6.40;3.70;;;;;;;-3.92;67.14;99958.41;128350;1110;22873;-65
2021/03/09 10:29:22;;;;;;;4.33;2.67;;;;;;;-3.79;67.50;99959.83;127827;1114;22868;-65
2021/03/09 10:32:00;;;;;;;6.40;3.20;;;;;;;-3.72;67.19;99964.36;127943;1114;22884;-65
2021/03/09 10:34:43;;;;;;;4.13;2.43;;;;;;;-3.67;65.81;99962.08;127849;1114;22858;-65
2021/03/09 10:37:12;;;;;;;7.40;3.50;;;;;;;-3.61;65.48;99957.97;127946;1114;23505;-63
2021/03/09 10:39:55;;;;;;;5.23;3.03;;;;;;;-3.53;64.92;99954.51;127802;1114;22896;-67
2021/03/09 10:42:39;;;;;;;3.70;2.60;;;;;;;-3.43;63.19;99961.39;127938;1114;23031;-69
2021/03/09 10:45:29;;;;;;;5.23;3.03;;;;;;;-3.36;63.28;99958.94;127898;1114;22936;-68
2021/03/09 10:48:00;;;;;;;5.73;3.87;;;;;;;-3.29;61.78;99960.80;127870;1115;23756;-68
2021/03/09 10:50:32;;;;;;;6.80;4.40;;;;;;;-3.22;61.87;99955.69;127928;1114;23543;-68
2021/03/09 10:52:59;;;;;;;4.93;2.70;;;;;;;-3.17;61.01;99956.02;127890;1115;22868;-68
2021/03/09 10:55:28;;;;;;;5.27;3.13;;;;;;;-3.12;60.58;99958.22;127821;1114;22881;-69
2021/03/09 10:57:55;;;;;;;6.10;2.57;;;;;;;-3.08;60.96;99970.24;127970;1115;23511;-69
2021/03/09 11:00:23;;;;;;;5.87;2.90;;;;;;;-3.09;61.00;99971.23;127808;1115;22975;-69
2021/03/09 11:02:51;;;;;;;3.80;2.90;;;;;;;-3.18;61.52;99969.53;127940;1114;22904;-69
2021/03/09 11:05:19;;;;;;;4.73;3.00;;;;;;;-3.32;62.53;99984.28;128051;1112;23017;-67
2021/03/09 11:07:46;;;;;;;9.23;3.63;;;;;;;-3.47;63.79;99992.02;128343;1111;23094;-68
2021/03/09 11:10:14;;;;;;;3.83;2.30;;;;;;;-3.61;62.97;99989.92;128231;1112;22832;-68
2021/03/09 11:12:41;;;;;;;3.67;2.30;;;;;;;-3.78;65.29;99986.30;128329;1111;22917;-69
2021/03/09 11:15:09;;;;;;;3.40;2.00;;;;;;;-3.93;68.25;99990.50;128200;1111;23033;-55
2021/03/09 11:17:37;;;;;;;3.43;2.23;;;;;;;-4.04;68.94;99994.22;128379;1112;22841;-69
2021/03/09 11:20:06;;;;;;;5.87;2.50;;;;;;;-4.08;69.18;99994.70;128221;1111;22976;-69
2021/03/09 11:22:33;;;;;;;6.60;2.47;;;;;;;-4.15;66.87;99999.77;128297;1112;22863;-68
2021/03/09 11:25:18;;;;;;;7.30;2.33;;;;;;;-4.20;67.78;100007.40;128253;1111;22828;-75
2021/03/09 11:27:45;;;;;;;3.53;3.10;;;;;;;-4.31;67.20;99992.47;128303;1111;22837;-69
2021/03/09 11:30:13;;;;;;;6.87;3.10;;;;;;;-4.32;67.64;99992.63;128389;1111;22846;-68
2021/03/09 11:32:41;;;;;;;5.23;3.03;;;;;;;-4.28;68.96;99988.68;127923;1111;23533;-68
2021/03/09 11:35:10;;;;;;;5.97;2.93;;;;;;;-4.24;68.38;99984.73;128247;1110;22902;-68
2021/03/09 11:37:37;;;;;;;5.53;2.50;;;;;;;-4.18;67.87;99984.11;128259;1111;22876;-68
2021/03/09 11:40:07;;;;;;;5.77;3.33;;;;;;;-4.12;65.77;99980.02;129243;1105;22830;-68
2021/03/09 11:42:34;;;;;;;7.20;2.80;;;;;;;-4.08;66.27;99979.56;129118;1105;22849;-68
2021/03/09 11:45:03;;;;;;;5.90;2.70;;;;;;;-3.99;65.99;99980.45;129310;1105;23009;-67